sensor_id;sensor_type;location;lat;lon;timestamp;P1;durP1;ratioP1;P2;durP2;ratioP2
37633;SDS011;32048;49.902;22.508;2023-04-09T00:01:05;93.30;;;44.10;;
37633;SDS011;32048;49.902;22.508;2023-04-09T00:03:34;104.43;;;45.83;;
37633;SDS011;32048;49.902;22.508;2023-04-09T00:06:02;99.07;;;44.57;;
37633;SDS011;32048;49.902;22.508;2023-04-09T00:08:30;96.23;;;42.80;;
37633;SDS011;32048;49.902;22.508;2023-04-09T00:10:57;85.97;;;40.03;;
37633;SDS011;32048;49.902;22.508;2023-04-09T00:13:25;89.50;;;42.57;;
37633;SDS011;32048;49.902;22.508;2023-04-09T00:16:04;82.97;;;41.67;;
37633;SDS011;32048;49.902;22.508;2023-04-09T00:18:32;80.10;;;40.77;;
37633;SDS011;32048;49.902;22.508;2023-04-09T00:20:59;84.30;;;40.27;;
37633;SDS011;32048;49.902;22.508;2023-04-09T00:23:26;82.53;;;39.83;;
37633;SDS011;32048;49.902;22.508;2023-04-09T00:25:53;73.33;;;37.80;;
37633;SDS011;32048;49.902;22.508;2023-04-09T00:28:21;67.67;;;36.73;;
37633;SDS011;32048;49.902;22.508;2023-04-09T00:30:47;75.83;;;39.47;;
37633;SDS011;32048;49.902;22.508;2023-04-09T00:33:15;74.17;;;36.50;;
37633;SDS011;32048;49.902;22.508;2023-04-09T00:35:41;70.53;;;37.83;;
37633;SDS011;32048;49.902;22.508;2023-04-09T00:38:09;72.97;;;37.63;;
37633;SDS011;32048;49.902;22.508;2023-04-09T00:40:36;86.47;;;40.30;;
37633;SDS011;32048;49.902;22.508;2023-04-09T00:43:03;85.30;;;39.73;;
37633;SDS011;32048;49.902;22.508;2023-04-09T00:45:31;84.07;;;37.00;;
37633;SDS011;32048;49.902;22.508;2023-04-09T00:47:58;78.00;;;38.20;;
37633;SDS011;32048;49.902;22.508;2023-04-09T00:50:25;81.97;;;40.13;;
37633;SDS011;32048;49.902;22.508;2023-04-09T00:52:52;80.37;;;42.27;;
37633;SDS011;32048;49.902;22.508;2023-04-09T00:55:19;80.47;;;39.83;;
37633;SDS011;32048;49.902;22.508;2023-04-09T00:57:47;74.37;;;39.13;;
37633;SDS011;32048;49.902;22.508;2023-04-09T01:00:14;78.10;;;39.80;;
37633;SDS011;32048;49.902;22.508;2023-04-09T01:02:41;72.03;;;38.07;;
37633;SDS011;32048;49.902;22.508;2023-04-09T01:05:10;61.03;;;31.38;;
37633;SDS011;32048;49.902;22.508;2023-04-09T01:07:46;71.60;;;36.85;;
37633;SDS011;32048;49.902;22.508;2023-04-09T01:10:37;68.43;;;35.07;;
37633;SDS011;32048;49.902;22.508;2023-04-09T01:16:15;57.77;;;33.83;;
37633;SDS011;32048;49.902;22.508;2023-04-09T01:18:51;60.13;;;34.20;;
37633;SDS011;32048;49.902;22.508;2023-04-09T01:21:25;56.42;;;31.38;;
37633;SDS011;32048;49.902;22.508;2023-04-09T01:24:13;59.60;;;32.10;;
37633;SDS011;32048;49.902;22.508;2023-04-09T01:26:55;58.83;;;33.43;;
37633;SDS011;32048;49.902;22.508;2023-04-09T01:29:34;61.23;;;32.90;;
37633;SDS011;32048;49.902;22.508;2023-04-09T01:32:04;59.27;;;31.93;;
37633;SDS011;32048;49.902;22.508;2023-04-09T01:34:33;55.58;;;33.88;;
37633;SDS011;32048;49.902;22.508;2023-04-09T01:37:01;59.33;;;32.77;;
37633;SDS011;32048;49.902;22.508;2023-04-09T01:39:29;55.33;;;31.40;;
37633;SDS011;32048;49.902;22.508;2023-04-09T01:41:57;58.30;;;32.50;;
37633;SDS011;32048;49.902;22.508;2023-04-09T01:44:24;55.60;;;31.40;;
37633;SDS011;32048;49.902;22.508;2023-04-09T01:46:53;52.33;;;30.92;;
37633;SDS011;32048;49.902;22.508;2023-04-09T01:49:21;54.22;;;31.73;;
37633;SDS011;32048;49.902;22.508;2023-04-09T01:51:49;47.43;;;28.70;;
37633;SDS011;32048;49.902;22.508;2023-04-09T01:54:16;55.17;;;32.37;;
37633;SDS011;32048;49.902;22.508;2023-04-09T01:56:44;52.73;;;30.00;;
37633;SDS011;32048;49.902;22.508;2023-04-09T01:59:13;57.13;;;31.67;;
37633;SDS011;32048;49.902;22.508;2023-04-09T02:01:43;52.70;;;31.10;;
37633;SDS011;32048;49.902;22.508;2023-04-09T02:04:21;59.47;;;32.40;;
37633;SDS011;32048;49.902;22.508;2023-04-09T02:06:54;55.30;;;32.40;;
37633;SDS011;32048;49.902;22.508;2023-04-09T02:09:28;53.33;;;32.23;;
37633;SDS011;32048;49.902;22.508;2023-04-09T02:11:57;56.33;;;31.17;;
37633;SDS011;32048;49.902;22.508;2023-04-09T02:14:28;59.20;;;34.77;;
37633;SDS011;32048;49.902;22.508;2023-04-09T02:17:01;57.67;;;33.47;;
37633;SDS011;32048;49.902;22.508;2023-04-09T02:19:41;58.27;;;31.53;;
37633;SDS011;32048;49.902;22.508;2023-04-09T02:22:10;55.17;;;32.50;;
37633;SDS011;32048;49.902;22.508;2023-04-09T02:24:38;58.97;;;32.00;;
37633;SDS011;32048;49.902;22.508;2023-04-09T02:27:06;57.60;;;33.17;;
37633;SDS011;32048;49.902;22.508;2023-04-09T02:29:33;55.57;;;33.63;;
37633;SDS011;32048;49.902;22.508;2023-04-09T02:32:00;56.23;;;34.23;;
37633;SDS011;32048;49.902;22.508;2023-04-09T02:34:28;68.60;;;39.40;;
37633;SDS011;32048;49.902;22.508;2023-04-09T02:36:55;70.63;;;40.77;;
37633;SDS011;32048;49.902;22.508;2023-04-09T02:39:22;61.67;;;34.60;;
37633;SDS011;32048;49.902;22.508;2023-04-09T02:41:49;59.00;;;35.50;;
37633;SDS011;32048;49.902;22.508;2023-04-09T02:44:16;64.67;;;35.33;;
37633;SDS011;32048;49.902;22.508;2023-04-09T02:46:43;60.67;;;35.00;;
37633;SDS011;32048;49.902;22.508;2023-04-09T02:49:13;61.50;;;35.27;;
37633;SDS011;32048;49.902;22.508;2023-04-09T02:51:40;56.20;;;34.17;;
37633;SDS011;32048;49.902;22.508;2023-04-09T02:54:07;57.03;;;33.40;;
37633;SDS011;32048;49.902;22.508;2023-04-09T02:56:34;61.57;;;35.50;;
37633;SDS011;32048;49.902;22.508;2023-04-09T02:59:01;57.80;;;34.47;;
37633;SDS011;32048;49.902;22.508;2023-04-09T03:01:28;61.77;;;32.70;;
37633;SDS011;32048;49.902;22.508;2023-04-09T03:03:55;59.07;;;33.50;;
37633;SDS011;32048;49.902;22.508;2023-04-09T03:06:22;56.33;;;33.43;;
37633;SDS011;32048;49.902;22.508;2023-04-09T03:08:50;60.50;;;35.83;;
37633;SDS011;32048;49.902;22.508;2023-04-09T03:11:17;59.33;;;34.23;;
37633;SDS011;32048;49.902;22.508;2023-04-09T03:13:44;58.77;;;33.87;;
37633;SDS011;32048;49.902;22.508;2023-04-09T03:16:11;56.17;;;32.90;;
37633;SDS011;32048;49.902;22.508;2023-04-09T03:18:38;57.57;;;33.00;;
37633;SDS011;32048;49.902;22.508;2023-04-09T03:21:05;58.03;;;34.43;;
37633;SDS011;32048;49.902;22.508;2023-04-09T03:23:33;60.30;;;35.13;;
37633;SDS011;32048;49.902;22.508;2023-04-09T03:26:01;55.67;;;33.57;;
37633;SDS011;32048;49.902;22.508;2023-04-09T03:28:29;60.22;;;33.78;;
37633;SDS011;32048;49.902;22.508;2023-04-09T03:30:56;59.70;;;35.90;;
37633;SDS011;32048;49.902;22.508;2023-04-09T03:33:24;60.07;;;35.43;;
37633;SDS011;32048;49.902;22.508;2023-04-09T03:35:51;66.67;;;37.90;;
37633;SDS011;32048;49.902;22.508;2023-04-09T03:38:18;94.80;;;47.87;;
37633;SDS011;32048;49.902;22.508;2023-04-09T03:40:45;72.77;;;38.00;;
37633;SDS011;32048;49.902;22.508;2023-04-09T03:43:12;59.73;;;34.83;;
37633;SDS011;32048;49.902;22.508;2023-04-09T03:45:39;56.57;;;33.80;;
37633;SDS011;32048;49.902;22.508;2023-04-09T03:48:06;60.30;;;32.70;;
37633;SDS011;32048;49.902;22.508;2023-04-09T03:50:37;58.40;;;35.93;;
37633;SDS011;32048;49.902;22.508;2023-04-09T03:53:06;60.27;;;33.67;;
37633;SDS011;32048;49.902;22.508;2023-04-09T03:55:33;59.80;;;35.63;;
37633;SDS011;32048;49.902;22.508;2023-04-09T03:58:00;59.17;;;34.93;;
37633;SDS011;32048;49.902;22.508;2023-04-09T04:00:30;58.40;;;32.90;;
37633;SDS011;32048;49.902;22.508;2023-04-09T04:02:57;55.97;;;33.07;;
37633;SDS011;32048;49.902;22.508;2023-04-09T04:05:25;51.10;;;31.70;;
37633;SDS011;32048;49.902;22.508;2023-04-09T04:07:52;50.57;;;31.70;;
37633;SDS011;32048;49.902;22.508;2023-04-09T04:10:19;49.43;;;32.30;;
37633;SDS011;32048;49.902;22.508;2023-04-09T04:12:46;51.17;;;31.73;;
37633;SDS011;32048;49.902;22.508;2023-04-09T04:15:13;50.70;;;30.50;;
37633;SDS011;32048;49.902;22.508;2023-04-09T04:17:40;50.90;;;31.67;;
37633;SDS011;32048;49.902;22.508;2023-04-09T04:20:08;50.63;;;31.67;;
37633;SDS011;32048;49.902;22.508;2023-04-09T04:22:36;48.72;;;30.45;;
37633;SDS011;32048;49.902;22.508;2023-04-09T04:25:03;53.60;;;32.93;;
37633;SDS011;32048;49.902;22.508;2023-04-09T04:27:31;55.20;;;32.13;;
37633;SDS011;32048;49.902;22.508;2023-04-09T04:29:58;52.00;;;30.90;;
37633;SDS011;32048;49.902;22.508;2023-04-09T04:32:26;54.90;;;32.40;;
37633;SDS011;32048;49.902;22.508;2023-04-09T04:34:53;53.07;;;34.27;;
37633;SDS011;32048;49.902;22.508;2023-04-09T04:37:20;49.37;;;32.67;;
37633;SDS011;32048;49.902;22.508;2023-04-09T04:39:47;50.30;;;31.93;;
37633;SDS011;32048;49.902;22.508;2023-04-09T04:42:14;53.40;;;33.50;;
37633;SDS011;32048;49.902;22.508;2023-04-09T04:44:42;48.10;;;29.87;;
37633;SDS011;32048;49.902;22.508;2023-04-09T04:47:10;51.57;;;32.60;;
37633;SDS011;32048;49.902;22.508;2023-04-09T04:49:37;48.47;;;31.73;;
37633;SDS011;32048;49.902;22.508;2023-04-09T04:52:04;45.13;;;29.03;;
37633;SDS011;32048;49.902;22.508;2023-04-09T04:54:32;39.27;;;26.10;;
37633;SDS011;32048;49.902;22.508;2023-04-09T04:56:59;39.87;;;26.23;;
37633;SDS011;32048;49.902;22.508;2023-04-09T04:59:27;41.50;;;24.93;;
37633;SDS011;32048;49.902;22.508;2023-04-09T05:01:54;37.43;;;24.93;;
37633;SDS011;32048;49.902;22.508;2023-04-09T05:04:21;37.97;;;24.45;;
37633;SDS011;32048;49.902;22.508;2023-04-09T05:06:48;35.55;;;22.98;;
37633;SDS011;32048;49.902;22.508;2023-04-09T05:09:16;40.28;;;25.23;;
37633;SDS011;32048;49.902;22.508;2023-04-09T05:11:43;39.60;;;24.58;;
37633;SDS011;32048;49.902;22.508;2023-04-09T05:14:10;37.83;;;24.77;;
37633;SDS011;32048;49.902;22.508;2023-04-09T05:16:38;50.15;;;29.63;;
37633;SDS011;32048;49.902;22.508;2023-04-09T05:19:06;46.30;;;28.40;;
37633;SDS011;32048;49.902;22.508;2023-04-09T05:21:33;65.57;;;35.80;;
37633;SDS011;32048;49.902;22.508;2023-04-09T05:24:00;63.67;;;35.45;;
37633;SDS011;32048;49.902;22.508;2023-04-09T05:26:28;64.07;;;34.90;;
37633;SDS011;32048;49.902;22.508;2023-04-09T05:28:55;53.13;;;31.55;;
37633;SDS011;32048;49.902;22.508;2023-04-09T05:31:22;47.17;;;31.77;;
37633;SDS011;32048;49.902;22.508;2023-04-09T05:33:49;56.83;;;35.05;;
37633;SDS011;32048;49.902;22.508;2023-04-09T05:36:17;63.65;;;41.78;;
37633;SDS011;32048;49.902;22.508;2023-04-09T05:38:47;59.42;;;39.63;;
37633;SDS011;32048;49.902;22.508;2023-04-09T05:41:14;39.83;;;26.38;;
37633;SDS011;32048;49.902;22.508;2023-04-09T05:43:41;39.88;;;24.83;;
37633;SDS011;32048;49.902;22.508;2023-04-09T05:46:09;32.72;;;22.00;;
37633;SDS011;32048;49.902;22.508;2023-04-09T05:48:36;34.10;;;22.33;;
37633;SDS011;32048;49.902;22.508;2023-04-09T05:51:03;31.60;;;21.67;;
37633;SDS011;32048;49.902;22.508;2023-04-09T05:53:30;29.77;;;20.75;;
37633;SDS011;32048;49.902;22.508;2023-04-09T05:55:58;30.48;;;21.85;;
37633;SDS011;32048;49.902;22.508;2023-04-09T05:58:27;29.50;;;20.20;;
37633;SDS011;32048;49.902;22.508;2023-04-09T06:00:55;29.50;;;21.33;;
37633;SDS011;32048;49.902;22.508;2023-04-09T06:03:21;45.85;;;31.17;;
37633;SDS011;32048;49.902;22.508;2023-04-09T06:05:49;42.30;;;28.05;;
37633;SDS011;32048;49.902;22.508;2023-04-09T06:08:16;32.05;;;23.27;;
37633;SDS011;32048;49.902;22.508;2023-04-09T06:10:43;35.97;;;25.48;;
37633;SDS011;32048;49.902;22.508;2023-04-09T06:13:11;38.58;;;28.13;;
37633;SDS011;32048;49.902;22.508;2023-04-09T06:15:39;44.85;;;29.73;;
37633;SDS011;32048;49.902;22.508;2023-04-09T06:18:06;42.28;;;29.88;;
37633;SDS011;32048;49.902;22.508;2023-04-09T06:20:33;55.97;;;33.25;;
37633;SDS011;32048;49.902;22.508;2023-04-09T06:23:00;50.10;;;32.83;;
37633;SDS011;32048;49.902;22.508;2023-04-09T06:25:27;51.13;;;34.50;;
37633;SDS011;32048;49.902;22.508;2023-04-09T06:27:54;45.47;;;30.20;;
37633;SDS011;32048;49.902;22.508;2023-04-09T06:30:22;37.47;;;27.77;;
37633;SDS011;32048;49.902;22.508;2023-04-09T06:32:49;41.17;;;28.63;;
37633;SDS011;32048;49.902;22.508;2023-04-09T06:35:21;40.90;;;28.52;;
37633;SDS011;32048;49.902;22.508;2023-04-09T06:37:48;39.75;;;27.02;;
37633;SDS011;32048;49.902;22.508;2023-04-09T06:40:15;36.88;;;26.33;;
37633;SDS011;32048;49.902;22.508;2023-04-09T06:42:42;41.55;;;27.67;;
37633;SDS011;32048;49.902;22.508;2023-04-09T06:45:09;39.53;;;26.90;;
37633;SDS011;32048;49.902;22.508;2023-04-09T06:47:36;39.50;;;25.73;;
37633;SDS011;32048;49.902;22.508;2023-04-09T06:50:04;41.67;;;27.33;;
37633;SDS011;32048;49.902;22.508;2023-04-09T06:52:31;42.53;;;27.77;;
37633;SDS011;32048;49.902;22.508;2023-04-09T06:54:58;38.00;;;26.65;;
37633;SDS011;32048;49.902;22.508;2023-04-09T06:57:25;37.03;;;25.15;;
37633;SDS011;32048;49.902;22.508;2023-04-09T06:59:53;39.47;;;25.20;;
37633;SDS011;32048;49.902;22.508;2023-04-09T07:02:19;48.17;;;27.90;;
37633;SDS011;32048;49.902;22.508;2023-04-09T07:04:47;43.70;;;27.13;;
37633;SDS011;32048;49.902;22.508;2023-04-09T07:07:14;43.67;;;26.80;;
37633;SDS011;32048;49.902;22.508;2023-04-09T07:09:41;35.33;;;26.08;;
37633;SDS011;32048;49.902;22.508;2023-04-09T07:12:08;38.53;;;26.30;;
37633;SDS011;32048;49.902;22.508;2023-04-09T07:14:36;38.08;;;26.35;;
37633;SDS011;32048;49.902;22.508;2023-04-09T07:17:03;37.08;;;25.70;;
37633;SDS011;32048;49.902;22.508;2023-04-09T07:19:30;36.88;;;26.27;;
37633;SDS011;32048;49.902;22.508;2023-04-09T07:21:57;37.15;;;24.50;;
37633;SDS011;32048;49.902;22.508;2023-04-09T07:24:24;40.30;;;26.90;;
37633;SDS011;32048;49.902;22.508;2023-04-09T07:26:51;36.47;;;26.33;;
37633;SDS011;32048;49.902;22.508;2023-04-09T07:29:19;37.15;;;26.20;;
37633;SDS011;32048;49.902;22.508;2023-04-09T07:31:47;44.60;;;27.13;;
37633;SDS011;32048;49.902;22.508;2023-04-09T07:34:15;40.42;;;27.90;;
37633;SDS011;32048;49.902;22.508;2023-04-09T07:36:42;47.60;;;30.98;;
37633;SDS011;32048;49.902;22.508;2023-04-09T07:39:09;42.53;;;29.17;;
37633;SDS011;32048;49.902;22.508;2023-04-09T07:41:36;40.00;;;27.80;;
37633;SDS011;32048;49.902;22.508;2023-04-09T07:44:03;44.30;;;28.63;;
37633;SDS011;32048;49.902;22.508;2023-04-09T07:46:32;37.60;;;26.97;;
37633;SDS011;32048;49.902;22.508;2023-04-09T07:48:59;42.85;;;27.75;;
37633;SDS011;32048;49.902;22.508;2023-04-09T07:51:26;39.50;;;26.77;;
37633;SDS011;32048;49.902;22.508;2023-04-09T07:53:53;41.83;;;29.70;;
37633;SDS011;32048;49.902;22.508;2023-04-09T07:56:20;39.50;;;28.83;;
37633;SDS011;32048;49.902;22.508;2023-04-09T07:58:48;40.58;;;27.20;;
37633;SDS011;32048;49.902;22.508;2023-04-09T08:01:16;41.35;;;28.70;;
37633;SDS011;32048;49.902;22.508;2023-04-09T08:03:43;46.28;;;30.55;;
37633;SDS011;32048;49.902;22.508;2023-04-09T08:06:11;43.90;;;29.48;;
37633;SDS011;32048;49.902;22.508;2023-04-09T08:08:38;42.50;;;29.80;;
37633;SDS011;32048;49.902;22.508;2023-04-09T08:11:05;48.42;;;30.73;;
37633;SDS011;32048;49.902;22.508;2023-04-09T08:13:33;46.72;;;29.77;;
37633;SDS011;32048;49.902;22.508;2023-04-09T08:16:00;45.33;;;29.58;;
37633;SDS011;32048;49.902;22.508;2023-04-09T08:18:30;40.92;;;28.95;;
37633;SDS011;32048;49.902;22.508;2023-04-09T08:20:57;50.97;;;33.15;;
37633;SDS011;32048;49.902;22.508;2023-04-09T08:23:24;47.42;;;32.83;;
37633;SDS011;32048;49.902;22.508;2023-04-09T08:25:51;51.45;;;34.95;;
37633;SDS011;32048;49.902;22.508;2023-04-09T08:28:19;54.40;;;34.10;;
37633;SDS011;32048;49.902;22.508;2023-04-09T08:30:45;50.55;;;33.72;;
37633;SDS011;32048;49.902;22.508;2023-04-09T08:33:14;40.97;;;28.92;;
37633;SDS011;32048;49.902;22.508;2023-04-09T08:35:41;39.20;;;28.70;;
37633;SDS011;32048;49.902;22.508;2023-04-09T08:38:09;38.75;;;27.63;;
37633;SDS011;32048;49.902;22.508;2023-04-09T08:40:35;37.53;;;26.05;;
37633;SDS011;32048;49.902;22.508;2023-04-09T08:43:04;37.97;;;26.60;;
37633;SDS011;32048;49.902;22.508;2023-04-09T08:48:00;36.17;;;27.17;;
37633;SDS011;32048;49.902;22.508;2023-04-09T08:50:30;35.38;;;24.63;;
37633;SDS011;32048;49.902;22.508;2023-04-09T08:52:58;33.92;;;26.50;;
37633;SDS011;32048;49.902;22.508;2023-04-09T08:55:28;59.30;;;43.47;;
37633;SDS011;32048;49.902;22.508;2023-04-09T08:57:57;33.78;;;25.80;;
37633;SDS011;32048;49.902;22.508;2023-04-09T09:00:23;30.45;;;23.73;;
37633;SDS011;32048;49.902;22.508;2023-04-09T09:03:07;32.42;;;24.20;;
37633;SDS011;32048;49.902;22.508;2023-04-09T09:05:36;28.67;;;21.85;;
37633;SDS011;32048;49.902;22.508;2023-04-09T09:08:08;26.35;;;20.65;;
37633;SDS011;32048;49.902;22.508;2023-04-09T09:10:36;25.57;;;20.20;;
37633;SDS011;32048;49.902;22.508;2023-04-09T09:13:17;25.15;;;19.80;;
37633;SDS011;32048;49.902;22.508;2023-04-09T09:15:44;28.90;;;21.17;;
37633;SDS011;32048;49.902;22.508;2023-04-09T09:18:15;31.38;;;23.27;;
37633;SDS011;32048;49.902;22.508;2023-04-09T09:20:43;38.00;;;30.63;;
37633;SDS011;32048;49.902;22.508;2023-04-09T09:23:11;30.27;;;24.20;;
37633;SDS011;32048;49.902;22.508;2023-04-09T09:25:38;46.88;;;36.75;;
37633;SDS011;32048;49.902;22.508;2023-04-09T09:28:07;33.95;;;26.38;;
37633;SDS011;32048;49.902;22.508;2023-04-09T09:30:36;25.67;;;22.77;;
37633;SDS011;32048;49.902;22.508;2023-04-09T09:33:08;26.00;;;22.67;;
37633;SDS011;32048;49.902;22.508;2023-04-09T09:35:46;24.88;;;21.45;;
37633;SDS011;32048;49.902;22.508;2023-04-09T09:38:17;30.90;;;24.63;;
37633;SDS011;32048;49.902;22.508;2023-04-09T09:40:44;28.33;;;23.75;;
37633;SDS011;32048;49.902;22.508;2023-04-09T09:43:12;30.02;;;24.13;;
37633;SDS011;32048;49.902;22.508;2023-04-09T09:45:40;27.10;;;23.67;;
37633;SDS011;32048;49.902;22.508;2023-04-09T09:48:09;23.60;;;19.88;;
37633;SDS011;32048;49.902;22.508;2023-04-09T09:50:38;23.85;;;19.15;;
37633;SDS011;32048;49.902;22.508;2023-04-09T09:53:10;25.67;;;19.27;;
37633;SDS011;32048;49.902;22.508;2023-04-09T09:55:38;20.05;;;16.05;;
37633;SDS011;32048;49.902;22.508;2023-04-09T09:58:18;21.48;;;18.08;;
37633;SDS011;32048;49.902;22.508;2023-04-09T10:00:49;21.75;;;19.45;;
37633;SDS011;32048;49.902;22.508;2023-04-09T10:03:24;25.25;;;19.23;;
37633;SDS011;32048;49.902;22.508;2023-04-09T10:05:53;23.02;;;19.10;;
37633;SDS011;32048;49.902;22.508;2023-04-09T10:08:21;30.30;;;21.15;;
37633;SDS011;32048;49.902;22.508;2023-04-09T10:10:49;28.40;;;22.17;;
37633;SDS011;32048;49.902;22.508;2023-04-09T10:13:25;35.22;;;22.80;;
37633;SDS011;32048;49.902;22.508;2023-04-09T10:15:58;32.47;;;22.67;;
37633;SDS011;32048;49.902;22.508;2023-04-09T10:18:26;32.42;;;25.45;;
37633;SDS011;32048;49.902;22.508;2023-04-09T10:21:30;28.88;;;21.88;;
37633;SDS011;32048;49.902;22.508;2023-04-09T10:24:08;25.60;;;20.52;;
37633;SDS011;32048;49.902;22.508;2023-04-09T10:26:39;36.33;;;26.98;;
37633;SDS011;32048;49.902;22.508;2023-04-09T10:29:10;27.23;;;22.80;;
37633;SDS011;32048;49.902;22.508;2023-04-09T10:34:20;37.35;;;26.88;;
37633;SDS011;32048;49.902;22.508;2023-04-09T10:36:50;37.33;;;28.50;;
37633;SDS011;32048;49.902;22.508;2023-04-09T10:39:19;31.35;;;23.50;;
37633;SDS011;32048;49.902;22.508;2023-04-09T10:41:47;30.80;;;24.05;;
37633;SDS011;32048;49.902;22.508;2023-04-09T10:46:46;24.85;;;19.98;;
37633;SDS011;32048;49.902;22.508;2023-04-09T10:49:17;23.25;;;19.45;;
37633;SDS011;32048;49.902;22.508;2023-04-09T10:52:05;30.08;;;20.42;;
37633;SDS011;32048;49.902;22.508;2023-04-09T10:54:37;21.52;;;17.92;;
37633;SDS011;32048;49.902;22.508;2023-04-09T11:05:00;20.10;;;17.13;;
37633;SDS011;32048;49.902;22.508;2023-04-09T11:07:45;21.30;;;18.67;;
37633;SDS011;32048;49.902;22.508;2023-04-09T11:10:22;24.40;;;21.88;;
37633;SDS011;32048;49.902;22.508;2023-04-09T11:12:49;23.50;;;21.00;;
37633;SDS011;32048;49.902;22.508;2023-04-09T11:15:17;24.58;;;22.08;;
37633;SDS011;32048;49.902;22.508;2023-04-09T11:17:45;18.40;;;16.10;;
37633;SDS011;32048;49.902;22.508;2023-04-09T11:20:14;22.30;;;18.40;;
37633;SDS011;32048;49.902;22.508;2023-04-09T11:22:43;23.13;;;20.65;;
37633;SDS011;32048;49.902;22.508;2023-04-09T11:25:16;24.17;;;20.80;;
37633;SDS011;32048;49.902;22.508;2023-04-09T11:27:45;23.25;;;20.02;;
37633;SDS011;32048;49.902;22.508;2023-04-09T11:30:13;22.83;;;20.33;;
37633;SDS011;32048;49.902;22.508;2023-04-09T11:32:41;24.77;;;22.08;;
37633;SDS011;32048;49.902;22.508;2023-04-09T11:35:15;25.05;;;19.48;;
37633;SDS011;32048;49.902;22.508;2023-04-09T11:37:44;22.00;;;15.93;;
37633;SDS011;32048;49.902;22.508;2023-04-09T11:40:16;19.55;;;17.27;;
37633;SDS011;32048;49.902;22.508;2023-04-09T11:42:51;21.75;;;16.63;;
37633;SDS011;32048;49.902;22.508;2023-04-09T11:47:48;24.48;;;18.05;;
37633;SDS011;32048;49.902;22.508;2023-04-09T11:50:16;41.30;;;21.00;;
37633;SDS011;32048;49.902;22.508;2023-04-09T11:52:45;25.55;;;18.02;;
37633;SDS011;32048;49.902;22.508;2023-04-09T11:55:21;23.65;;;18.30;;
37633;SDS011;32048;49.902;22.508;2023-04-09T11:57:50;26.13;;;19.30;;
37633;SDS011;32048;49.902;22.508;2023-04-09T12:00:19;24.65;;;19.33;;
37633;SDS011;32048;49.902;22.508;2023-04-09T12:02:47;25.00;;;15.77;;
37633;SDS011;32048;49.902;22.508;2023-04-09T12:07:47;23.58;;;16.98;;
37633;SDS011;32048;49.902;22.508;2023-04-09T12:10:25;22.45;;;17.88;;
37633;SDS011;32048;49.902;22.508;2023-04-09T12:15:30;20.02;;;16.35;;
37633;SDS011;32048;49.902;22.508;2023-04-09T12:17:59;21.27;;;16.25;;
37633;SDS011;32048;49.902;22.508;2023-04-09T12:23:01;23.58;;;17.38;;
37633;SDS011;32048;49.902;22.508;2023-04-09T12:25:30;20.52;;;16.30;;
37633;SDS011;32048;49.902;22.508;2023-04-09T12:28:03;20.75;;;15.63;;
37633;SDS011;32048;49.902;22.508;2023-04-09T12:32:59;25.45;;;18.55;;
37633;SDS011;32048;49.902;22.508;2023-04-09T12:35:26;24.05;;;17.45;;
37633;SDS011;32048;49.902;22.508;2023-04-09T12:37:54;24.35;;;17.80;;
37633;SDS011;32048;49.902;22.508;2023-04-09T12:40:21;24.92;;;18.02;;
37633;SDS011;32048;49.902;22.508;2023-04-09T12:42:48;27.17;;;18.02;;
37633;SDS011;32048;49.902;22.508;2023-04-09T12:45:17;24.80;;;16.95;;
37633;SDS011;32048;49.902;22.508;2023-04-09T12:47:45;23.48;;;17.30;;
37633;SDS011;32048;49.902;22.508;2023-04-09T12:50:13;25.83;;;17.77;;
37633;SDS011;32048;49.902;22.508;2023-04-09T12:52:42;26.90;;;19.23;;
37633;SDS011;32048;49.902;22.508;2023-04-09T12:55:10;26.75;;;17.60;;
37633;SDS011;32048;49.902;22.508;2023-04-09T12:57:38;25.52;;;17.73;;
37633;SDS011;32048;49.902;22.508;2023-04-09T13:00:08;26.85;;;18.20;;
37633;SDS011;32048;49.902;22.508;2023-04-09T13:02:36;25.15;;;18.23;;
37633;SDS011;32048;49.902;22.508;2023-04-09T13:05:05;23.23;;;16.98;;
37633;SDS011;32048;49.902;22.508;2023-04-09T13:07:32;25.95;;;16.58;;
37633;SDS011;32048;49.902;22.508;2023-04-09T13:10:00;25.60;;;18.40;;
37633;SDS011;32048;49.902;22.508;2023-04-09T13:12:27;26.85;;;18.48;;
37633;SDS011;32048;49.902;22.508;2023-04-09T13:14:54;24.30;;;17.75;;
37633;SDS011;32048;49.902;22.508;2023-04-09T13:17:22;24.35;;;18.23;;
37633;SDS011;32048;49.902;22.508;2023-04-09T13:19:49;29.52;;;19.98;;
37633;SDS011;32048;49.902;22.508;2023-04-09T13:22:17;25.35;;;18.90;;
37633;SDS011;32048;49.902;22.508;2023-04-09T13:24:44;25.25;;;18.42;;
37633;SDS011;32048;49.902;22.508;2023-04-09T13:27:11;25.45;;;18.65;;
37633;SDS011;32048;49.902;22.508;2023-04-09T13:29:39;28.02;;;19.35;;
37633;SDS011;32048;49.902;22.508;2023-04-09T13:32:06;19.70;;;14.57;;
37633;SDS011;32048;49.902;22.508;2023-04-09T13:34:34;15.38;;;12.80;;
37633;SDS011;32048;49.902;22.508;2023-04-09T13:37:01;18.30;;;13.35;;
37633;SDS011;32048;49.902;22.508;2023-04-09T13:39:29;19.02;;;14.63;;
37633;SDS011;32048;49.902;22.508;2023-04-09T13:41:56;23.60;;;16.83;;
37633;SDS011;32048;49.902;22.508;2023-04-09T13:44:24;24.02;;;17.10;;
37633;SDS011;32048;49.902;22.508;2023-04-09T13:46:52;32.85;;;21.73;;
37633;SDS011;32048;49.902;22.508;2023-04-09T13:49:19;24.08;;;18.15;;
37633;SDS011;32048;49.902;22.508;2023-04-09T13:51:47;25.58;;;21.25;;
37633;SDS011;32048;49.902;22.508;2023-04-09T13:54:15;21.95;;;17.83;;
37633;SDS011;32048;49.902;22.508;2023-04-09T13:56:43;25.90;;;18.60;;
37633;SDS011;32048;49.902;22.508;2023-04-09T13:59:11;25.75;;;19.50;;
37633;SDS011;32048;49.902;22.508;2023-04-09T14:01:38;26.08;;;19.27;;
37633;SDS011;32048;49.902;22.508;2023-04-09T14:04:07;24.50;;;18.38;;
37633;SDS011;32048;49.902;22.508;2023-04-09T14:06:34;24.45;;;18.25;;
37633;SDS011;32048;49.902;22.508;2023-04-09T14:09:01;35.40;;;24.85;;
37633;SDS011;32048;49.902;22.508;2023-04-09T14:11:28;66.30;;;55.42;;
37633;SDS011;32048;49.902;22.508;2023-04-09T14:13:56;33.83;;;26.85;;
37633;SDS011;32048;49.902;22.508;2023-04-09T14:16:23;24.67;;;17.17;;
37633;SDS011;32048;49.902;22.508;2023-04-09T14:18:50;20.67;;;16.27;;
37633;SDS011;32048;49.902;22.508;2023-04-09T14:21:17;25.88;;;18.67;;
37633;SDS011;32048;49.902;22.508;2023-04-09T14:23:44;22.85;;;16.63;;
37633;SDS011;32048;49.902;22.508;2023-04-09T14:26:12;20.67;;;15.82;;
37633;SDS011;32048;49.902;22.508;2023-04-09T14:28:39;21.58;;;15.93;;
37633;SDS011;32048;49.902;22.508;2023-04-09T14:31:06;18.02;;;14.18;;
37633;SDS011;32048;49.902;22.508;2023-04-09T14:33:33;18.40;;;13.18;;
37633;SDS011;32048;49.902;22.508;2023-04-09T14:36:00;20.90;;;14.27;;
37633;SDS011;32048;49.902;22.508;2023-04-09T14:38:29;23.17;;;16.90;;
37633;SDS011;32048;49.902;22.508;2023-04-09T14:40:56;24.42;;;19.15;;
37633;SDS011;32048;49.902;22.508;2023-04-09T14:43:23;28.05;;;18.88;;
37633;SDS011;32048;49.902;22.508;2023-04-09T14:45:50;23.35;;;17.90;;
37633;SDS011;32048;49.902;22.508;2023-04-09T14:48:18;19.85;;;14.73;;